Lost Island Lake, Iowa
Current Conditions -  °F | °C
As of 12:52 PM on Thursday 23 Oct 2014 (Local Time) from KEST Reporting Station
Clear Clear  
Wind Chill: 64°   Ceiling: Unl
Heat Index: 64°   Visibility: 10mi
Dew Point: 51°   Wind: 7mph
Humidity: 63%   Direction: NA
Pressure: 30.02"   Gusts: NA
Location:  43.1691°N, 94.8541°W
Report Text: KEST 231752Z AUTO VRB06KT 10SM CLR 18/11 A3002 RMK AO2 SLP165 T01780106 10178 20094 58004
Loading
Personal Weather Stations






























Interactive Weather Map
Tropical Storm Tracking
New forecast layout! Learn more

10-Day Weather Forecast

Advertisements
Track Severe Weather on mobile